createdAt,value
2024-05-09T00:00:36.285Z,6.00
2024-05-09T00:03:10.812Z,6.63
2024-05-09T00:05:43.040Z,6.13
2024-05-09T00:08:13.380Z,6.87
2024-05-09T00:10:45.658Z,5.40
2024-05-09T00:13:15.681Z,5.10
2024-05-09T00:15:45.099Z,5.57
2024-05-09T00:18:14.665Z,5.93
2024-05-09T00:20:44.271Z,6.13
2024-05-09T00:23:14.480Z,7.30
2024-05-09T00:25:47.166Z,5.30
2024-05-09T00:28:16.772Z,6.47
2024-05-09T00:30:46.788Z,7.13
2024-05-09T00:33:16.480Z,7.17
2024-05-09T00:35:46.113Z,6.33
2024-05-09T00:38:15.577Z,6.13
2024-05-09T00:40:47.704Z,6.63
2024-05-09T00:43:17.570Z,6.23
2024-05-09T00:45:47.298Z,5.87
2024-05-09T00:48:21.314Z,6.57
2024-05-09T00:50:54.203Z,6.10
2024-05-09T00:53:23.913Z,6.47
2024-05-09T00:55:58.140Z,6.67
2024-05-09T00:58:30.175Z,6.43
2024-05-09T01:01:01.945Z,5.67
2024-05-09T01:03:31.454Z,8.70
2024-05-09T01:06:00.974Z,6.27
2024-05-09T01:08:30.617Z,6.30
2024-05-09T01:11:02.932Z,7.80
2024-05-09T01:13:32.453Z,5.67
2024-05-09T01:16:02.007Z,6.13
2024-05-09T01:18:31.861Z,8.23
2024-05-09T01:21:01.362Z,6.30
2024-05-09T01:23:33.567Z,6.63
2024-05-09T01:26:03.176Z,7.20
2024-05-09T01:28:32.604Z,5.70
2024-05-09T01:31:01.936Z,6.73
2024-05-09T01:33:31.516Z,5.60
2024-05-09T01:36:01.176Z,6.73
2024-05-09T01:38:33.400Z,5.50
2024-05-09T01:41:02.992Z,8.37
2024-05-09T01:43:32.422Z,6.47
2024-05-09T01:46:01.826Z,9.00
2024-05-09T01:48:31.343Z,8.27
2024-05-09T01:51:00.899Z,6.60
2024-05-09T01:53:33.299Z,7.60
2024-05-09T01:56:02.894Z,6.90
2024-05-09T01:58:32.535Z,6.30
2024-05-09T02:01:02.028Z,7.77
2024-05-09T02:03:31.692Z,7.83
2024-05-09T02:06:01.340Z,8.97
2024-05-09T02:08:33.665Z,5.90
2024-05-09T02:11:03.573Z,6.33
2024-05-09T02:13:33.008Z,7.57
2024-05-09T02:16:02.406Z,7.40
2024-05-09T02:18:31.851Z,6.70
2024-05-09T02:21:01.487Z,6.33
2024-05-09T02:23:33.742Z,6.17
2024-05-09T02:26:03.286Z,6.47
2024-05-09T02:28:32.709Z,6.07
2024-05-09T02:31:02.087Z,7.43
2024-05-09T02:33:31.722Z,6.40
2024-05-09T02:36:01.263Z,6.03
2024-05-09T02:38:30.861Z,5.40
2024-05-09T02:41:00.344Z,6.67
2024-05-09T02:43:27.123Z,5.23
2024-05-09T02:45:56.539Z,5.73
2024-05-09T02:48:23.631Z,6.63
2024-05-09T02:50:53.249Z,5.87
2024-05-09T02:53:20.198Z,5.60
2024-05-09T02:55:52.241Z,5.50
2024-05-09T02:58:19.050Z,5.30
2024-05-09T03:00:48.518Z,8.53
2024-05-09T03:03:15.956Z,6.20
2024-05-09T03:05:46.324Z,5.20
2024-05-09T03:08:13.636Z,5.43
2024-05-09T03:10:43.382Z,5.63
2024-05-09T03:13:15.429Z,4.83
2024-05-09T03:15:46.066Z,5.43
2024-05-09T03:18:13.437Z,6.10
2024-05-09T03:20:43.970Z,5.17
2024-05-09T03:23:11.148Z,6.00
2024-05-09T03:25:40.759Z,5.60
2024-05-09T03:28:07.653Z,5.50
2024-05-09T03:30:42.486Z,5.97
2024-05-09T03:33:10.983Z,7.40
2024-05-09T03:35:40.744Z,6.07
2024-05-09T03:38:10.272Z,5.77
2024-05-09T03:40:46.784Z,8.90
2024-05-09T03:43:17.080Z,5.93
2024-05-09T03:45:48.709Z,7.40
2024-05-09T03:48:18.345Z,5.40
2024-05-09T03:50:45.376Z,6.10
2024-05-09T03:53:16.792Z,5.17
2024-05-09T03:55:43.775Z,8.33
2024-05-09T03:58:14.524Z,5.63
2024-05-09T04:00:42.185Z,5.50
2024-05-09T04:03:14.684Z,6.93
2024-05-09T04:05:42.979Z,5.83
2024-05-09T04:08:13.292Z,6.30
2024-05-09T04:10:40.830Z,7.87
2024-05-09T04:13:10.326Z,6.67
2024-05-09T04:15:37.177Z,6.73
2024-05-09T04:18:07.056Z,6.07
2024-05-09T04:20:39.750Z,5.83
2024-05-09T04:23:13.802Z,7.20
2024-05-09T04:25:42.502Z,7.07
2024-05-09T04:28:12.122Z,5.73
2024-05-09T04:30:41.165Z,6.70
2024-05-09T04:33:13.995Z,7.07
2024-05-09T04:35:44.982Z,5.70
2024-05-09T04:38:15.496Z,6.43
2024-05-09T04:40:42.921Z,8.43
2024-05-09T04:43:18.845Z,6.10
2024-05-09T04:45:46.211Z,5.57
2024-05-09T04:48:16.599Z,5.13
2024-05-09T04:50:46.425Z,7.20
2024-05-09T04:53:18.450Z,6.37
2024-05-09T04:55:45.973Z,7.03
2024-05-09T04:58:15.473Z,5.50
2024-05-09T05:00:42.344Z,7.10
2024-05-09T05:03:15.628Z,5.40
2024-05-09T05:05:46.606Z,5.30
2024-05-09T05:08:17.852Z,5.10
2024-05-09T05:10:46.587Z,5.87
2024-05-09T05:13:21.082Z,5.27
2024-05-09T05:15:49.832Z,4.97
2024-05-09T05:18:20.092Z,4.68
2024-05-09T05:20:50.091Z,4.75
2024-05-09T05:23:22.136Z,8.40
2024-05-09T05:25:50.450Z,4.43
2024-05-09T05:28:20.340Z,4.25
2024-05-09T05:30:47.110Z,4.32
2024-05-09T05:33:19.143Z,4.82
2024-05-09T05:35:49.106Z,5.43
2024-05-09T05:38:19.131Z,5.00
2024-05-09T05:40:46.752Z,4.30
2024-05-09T05:43:20.503Z,5.38
2024-05-09T05:45:47.361Z,4.82
2024-05-09T05:48:18.748Z,4.70
2024-05-09T05:50:46.234Z,5.60
2024-05-09T05:53:18.490Z,4.40
2024-05-09T05:55:45.473Z,5.95
2024-05-09T05:58:15.163Z,4.32
2024-05-09T06:00:42.760Z,5.95
2024-05-09T06:03:14.439Z,5.57
2024-05-09T06:05:44.195Z,4.82
2024-05-09T06:08:14.324Z,4.45
2024-05-09T06:10:43.989Z,4.20
2024-05-09T06:13:15.635Z,5.25
2024-05-09T06:15:43.215Z,5.60
2024-05-09T06:18:13.287Z,6.45
2024-05-09T06:20:42.286Z,5.38
2024-05-09T06:23:13.309Z,6.03
2024-05-09T06:25:43.961Z,5.93
2024-05-09T06:28:13.665Z,7.15
2024-05-09T06:30:42.495Z,4.97
2024-05-09T06:33:15.701Z,6.55
2024-05-09T06:35:43.650Z,4.97
2024-05-09T06:38:13.298Z,4.68
2024-05-09T06:40:44.294Z,5.32
2024-05-09T06:43:17.358Z,5.13
2024-05-09T06:45:47.634Z,6.55
2024-05-09T06:48:18.186Z,6.20
2024-05-09T06:50:45.903Z,5.20
2024-05-09T06:53:17.046Z,7.05
2024-05-09T06:55:46.743Z,4.82
2024-05-09T06:58:16.194Z,8.63
2024-05-09T07:00:43.260Z,5.30
2024-05-09T07:03:16.045Z,5.75
2024-05-09T07:05:45.528Z,7.40
2024-05-09T07:08:15.307Z,5.10
2024-05-09T07:10:47.005Z,5.43
2024-05-09T07:13:16.992Z,6.05
2024-05-09T07:15:43.969Z,5.78
2024-05-09T07:18:15.659Z,6.72
2024-05-09T07:20:43.171Z,8.52
2024-05-09T07:23:13.207Z,5.80
2024-05-09T07:25:41.515Z,6.13
2024-05-09T07:28:16.786Z,5.75
2024-05-09T07:30:44.407Z,5.47
2024-05-09T07:33:19.354Z,5.80
2024-05-09T07:35:46.926Z,6.50
2024-05-09T07:38:16.552Z,7.00
2024-05-09T07:40:43.617Z,6.40
2024-05-09T07:43:16.049Z,5.90
2024-05-09T07:45:52.146Z,7.38
2024-05-09T07:52:38.365Z,7.35
2024-05-09T07:53:48.224Z,7.35
2024-05-09T07:56:19.404Z,6.10
2024-05-09T07:58:54.452Z,7.38
2024-05-09T08:01:21.677Z,7.47
2024-05-09T08:03:51.281Z,8.23
2024-05-09T08:06:18.159Z,6.40
2024-05-09T08:08:48.491Z,7.78
2024-05-09T08:11:15.627Z,5.55
2024-05-09T08:13:45.106Z,6.30
2024-05-09T08:16:14.768Z,6.47
2024-05-09T08:18:44.503Z,9.65
2024-05-09T08:21:11.425Z,6.18
2024-05-09T08:23:40.781Z,6.32
2024-05-09T08:26:07.598Z,7.38
2024-05-09T08:28:37.176Z,6.45
2024-05-09T08:31:06.857Z,5.70
2024-05-09T08:33:39.666Z,6.47
2024-05-09T08:36:07.295Z,7.85
2024-05-09T08:38:36.757Z,6.45
2024-05-09T08:41:04.449Z,6.45
2024-05-09T08:43:34.002Z,5.97
2024-05-09T08:46:04.288Z,6.18
2024-05-09T08:48:37.110Z,7.63
2024-05-09T08:51:07.086Z,7.75
2024-05-09T08:53:36.571Z,6.30
2024-05-09T08:56:06.067Z,6.00
2024-05-09T08:58:37.686Z,6.47
2024-05-09T09:01:04.919Z,6.75
2024-05-09T09:03:36.588Z,10.30
2024-05-09T09:06:08.809Z,6.60
2024-05-09T09:08:41.458Z,8.02
2024-05-09T09:11:08.375Z,7.18
2024-05-09T09:13:37.778Z,9.23
2024-05-09T09:16:05.392Z,5.63
2024-05-09T09:18:34.976Z,9.48
2024-05-09T09:21:02.875Z,7.68
2024-05-09T09:23:36.086Z,9.45
2024-05-09T09:26:02.815Z,7.53
2024-05-09T09:28:32.311Z,8.40
2024-05-09T09:31:03.274Z,9.40
2024-05-09T09:33:36.078Z,8.80
2024-05-09T09:36:04.314Z,7.38
2024-05-09T09:38:39.824Z,10.77
2024-05-09T09:41:07.849Z,8.55
2024-05-09T09:43:39.039Z,8.63
2024-05-09T09:46:08.785Z,10.00
2024-05-09T09:48:42.699Z,11.45
2024-05-09T09:51:10.112Z,8.35
2024-05-09T09:53:42.433Z,10.95
2024-05-09T09:56:11.153Z,10.80
2024-05-09T09:58:42.678Z,9.15
2024-05-09T10:01:09.987Z,10.43
2024-05-09T10:03:39.886Z,9.02
2024-05-09T10:06:07.715Z,11.20
2024-05-09T10:08:38.644Z,10.23
2024-05-09T10:11:08.294Z,7.10
2024-05-09T10:13:37.962Z,8.48
2024-05-09T10:16:09.349Z,8.23
2024-05-09T10:18:40.174Z,10.73
2024-05-09T10:21:16.853Z,10.07
2024-05-09T10:23:47.317Z,11.57
2024-05-09T10:26:16.735Z,7.95
2024-05-09T10:28:46.839Z,9.20
2024-05-09T10:31:16.009Z,8.57
2024-05-09T10:33:50.216Z,10.15
2024-05-09T10:36:20.173Z,12.73
2024-05-09T10:38:51.042Z,8.45
2024-05-09T10:41:21.510Z,10.70
2024-05-09T10:43:51.693Z,12.75
2024-05-09T10:46:19.274Z,9.48
2024-05-09T10:48:50.173Z,8.60
2024-05-09T10:51:18.686Z,10.80
2024-05-09T10:53:52.699Z,9.82
2024-05-09T10:56:22.117Z,10.43
2024-05-09T10:58:54.798Z,8.70
2024-05-09T11:01:21.775Z,11.57
2024-05-09T11:03:51.784Z,10.00
2024-05-09T11:06:19.054Z,8.13
2024-05-09T11:08:49.390Z,8.95
2024-05-09T11:11:16.845Z,7.50
2024-05-09T11:13:49.170Z,9.48
2024-05-09T11:16:20.859Z,8.70
2024-05-09T11:18:59.080Z,10.80
2024-05-09T11:21:26.788Z,9.45
2024-05-09T11:23:56.336Z,8.38
2024-05-09T11:26:25.201Z,10.95
2024-05-09T11:28:57.340Z,9.10
2024-05-09T11:31:24.629Z,8.73
2024-05-09T11:33:57.018Z,7.85
2024-05-09T11:36:24.020Z,9.93
2024-05-09T11:38:53.537Z,9.70
2024-05-09T11:41:20.612Z,6.70
2024-05-09T11:43:50.024Z,8.25
2024-05-09T11:46:19.498Z,9.45
2024-05-09T11:48:49.113Z,7.28
2024-05-09T11:51:16.013Z,7.78
2024-05-09T11:53:45.432Z,8.25
2024-05-09T11:56:15.376Z,7.38
2024-05-09T11:58:44.809Z,8.40
2024-05-09T12:01:11.718Z,8.02
2024-05-09T12:03:44.118Z,9.40
2024-05-09T12:06:11.405Z,9.27
2024-05-09T12:08:41.224Z,6.50
2024-05-09T12:11:08.289Z,10.45
2024-05-09T12:13:37.798Z,9.40
2024-05-09T12:16:05.350Z,7.72
2024-05-09T12:18:35.895Z,7.65
2024-05-09T12:21:05.935Z,9.50
2024-05-09T12:23:35.348Z,8.55
2024-05-09T12:26:02.979Z,7.82
2024-05-09T12:28:32.521Z,8.15
2024-05-09T12:30:59.503Z,9.05
2024-05-09T12:33:29.666Z,8.85
2024-05-09T12:35:56.613Z,7.68
2024-05-09T12:38:28.651Z,10.88
2024-05-09T12:40:56.052Z,8.43
2024-05-09T12:43:25.808Z,9.65
2024-05-09T12:45:53.014Z,9.98
2024-05-09T12:48:22.538Z,8.50
2024-05-09T12:50:49.668Z,15.02
2024-05-09T12:53:19.144Z,9.10
2024-05-09T12:55:56.287Z,10.65
2024-05-09T12:58:29.222Z,8.40
2024-05-09T13:00:56.237Z,10.45
2024-05-09T13:03:26.024Z,11.77
2024-05-09T13:05:53.453Z,8.35
2024-05-09T13:08:23.437Z,12.80
2024-05-09T13:10:52.995Z,9.77
2024-05-09T13:13:22.583Z,9.00
2024-05-09T13:15:49.762Z,11.18
2024-05-09T13:18:19.352Z,9.10
2024-05-09T13:20:46.543Z,10.25
2024-05-09T13:23:16.077Z,9.23
2024-05-09T13:25:42.884Z,9.80
2024-05-09T13:28:15.064Z,8.82
2024-05-09T13:30:42.487Z,10.20
2024-05-09T13:33:13.091Z,9.55
2024-05-09T13:35:45.608Z,10.60
2024-05-09T13:38:19.459Z,9.20
2024-05-09T13:40:47.025Z,12.05
2024-05-09T13:43:20.814Z,9.80
2024-05-09T13:45:47.823Z,9.05
2024-05-09T13:48:17.560Z,9.98
2024-05-09T13:50:44.498Z,9.60
2024-05-09T13:53:13.931Z,10.05
2024-05-09T13:55:40.892Z,9.25
2024-05-09T13:58:11.026Z,10.15
2024-05-09T14:00:46.425Z,9.63
2024-05-09T14:03:20.277Z,9.32
2024-05-09T14:05:49.640Z,9.45
2024-05-09T14:08:23.038Z,11.60
2024-05-09T14:10:50.671Z,9.63
2024-05-09T14:13:20.512Z,10.38
2024-05-09T14:15:50.374Z,12.70
2024-05-09T14:18:20.656Z,10.13
2024-05-09T14:20:47.484Z,10.18
2024-05-09T14:23:17.394Z,11.18
2024-05-09T14:25:46.025Z,10.02
2024-05-09T14:28:16.790Z,8.50
2024-05-09T14:30:43.598Z,11.07
2024-05-09T14:33:20.549Z,9.27
2024-05-09T14:35:47.445Z,10.43
2024-05-09T14:38:16.891Z,9.38
2024-05-09T14:40:44.330Z,9.68
2024-05-09T14:43:14.904Z,11.88
2024-05-09T14:45:43.352Z,12.23
2024-05-09T14:48:17.691Z,9.65
2024-05-09T14:50:44.544Z,9.60
2024-05-09T14:53:14.974Z,8.57
2024-05-09T14:55:43.323Z,7.88
2024-05-09T14:58:14.190Z,7.72
2024-05-09T15:00:46.779Z,9.15
2024-05-09T15:03:22.798Z,8.20
2024-05-09T15:05:50.325Z,8.13
2024-05-09T15:08:20.686Z,7.43
2024-05-09T15:10:50.245Z,7.38
2024-05-09T15:13:20.464Z,8.43
2024-05-09T15:15:47.587Z,7.90
2024-05-09T15:18:17.740Z,9.10
2024-05-09T15:20:48.287Z,7.90
2024-05-09T15:23:17.953Z,8.82
2024-05-09T15:25:44.890Z,8.35
2024-05-09T15:28:14.640Z,8.55
2024-05-09T15:30:45.463Z,9.60
2024-05-09T15:33:16.231Z,10.02
2024-05-09T15:35:43.224Z,10.15
2024-05-09T15:38:15.858Z,12.57
2024-05-09T15:40:42.698Z,12.10
2024-05-09T15:43:12.974Z,11.80
2024-05-09T15:45:41.035Z,13.30
2024-05-09T15:48:12.028Z,12.07
2024-05-09T15:50:41.475Z,12.60
2024-05-09T15:53:13.153Z,12.43
2024-05-09T15:55:43.242Z,12.00
2024-05-09T15:58:13.260Z,12.50
2024-05-09T16:00:43.454Z,13.93
2024-05-09T16:03:15.566Z,13.73
2024-05-09T16:05:44.166Z,14.25
2024-05-09T16:08:14.971Z,14.82
2024-05-09T16:10:47.087Z,13.43
2024-05-09T16:13:18.037Z,13.00
2024-05-09T16:15:45.640Z,14.10
2024-05-09T16:18:15.338Z,13.32
2024-05-09T16:20:44.131Z,14.82
2024-05-09T16:23:15.270Z,14.77
2024-05-09T16:25:47.790Z,14.40
2024-05-09T16:28:17.702Z,13.10
2024-05-09T16:30:44.711Z,13.82
2024-05-09T16:33:14.302Z,15.10
2024-05-09T16:35:41.196Z,12.98
2024-05-09T16:38:11.115Z,14.57
2024-05-09T16:40:40.596Z,12.60
2024-05-09T16:43:15.522Z,17.23
2024-05-09T16:45:44.713Z,15.63
2024-05-09T16:48:14.819Z,13.13
2024-05-09T16:50:41.901Z,15.50
2024-05-09T16:53:11.810Z,13.05
2024-05-09T16:55:38.867Z,13.48
2024-05-09T16:58:09.300Z,12.77
2024-05-09T17:00:42.456Z,14.65
2024-05-09T17:03:16.086Z,15.60
2024-05-09T17:05:43.946Z,12.75
2024-05-09T17:08:13.646Z,12.00
2024-05-09T17:10:40.641Z,12.98
2024-05-09T17:13:10.388Z,12.70
2024-05-09T17:15:42.639Z,12.30
2024-05-09T17:18:12.516Z,11.65
2024-05-09T17:20:39.408Z,14.02
2024-05-09T17:23:13.725Z,13.10
2024-05-09T17:25:41.297Z,10.68
2024-05-09T17:28:11.726Z,11.43
2024-05-09T17:30:42.743Z,12.50
2024-05-09T17:33:13.485Z,11.02
2024-05-09T17:35:40.891Z,13.00
2024-05-09T17:38:10.656Z,12.38
2024-05-09T17:40:38.915Z,10.75
2024-05-09T17:43:10.440Z,13.68
2024-05-09T17:45:42.632Z,14.45
2024-05-09T17:48:13.040Z,15.18
2024-05-09T17:50:40.922Z,11.05
2024-05-09T17:53:11.651Z,13.90
2024-05-09T17:55:39.071Z,13.73
2024-05-09T17:58:09.121Z,13.15
2024-05-09T18:00:39.905Z,12.63
2024-05-09T18:03:14.823Z,11.02
2024-05-09T18:05:43.453Z,12.68
2024-05-09T18:08:14.123Z,11.80
2024-05-09T18:10:41.542Z,12.98
2024-05-09T18:13:12.363Z,12.40
2024-05-09T18:15:39.811Z,10.63
2024-05-09T18:18:10.640Z,11.57
2024-05-09T18:20:44.428Z,12.40
2024-05-09T18:23:31.095Z,10.32
2024-05-09T18:25:57.999Z,10.73
2024-05-09T18:28:27.779Z,12.25
2024-05-09T18:30:54.781Z,10.10
2024-05-09T18:33:24.515Z,11.45
2024-05-09T18:35:54.184Z,10.27
2024-05-09T18:38:26.788Z,11.38
2024-05-09T18:40:54.036Z,9.52
2024-05-09T18:43:28.915Z,9.63
2024-05-09T18:46:06.295Z,14.27
2024-05-09T18:48:34.443Z,10.38
2024-05-09T18:51:07.733Z,9.98
2024-05-09T18:53:34.846Z,9.55
2024-05-09T18:56:04.731Z,9.18
2024-05-09T18:58:31.515Z,8.15
2024-05-09T19:01:01.923Z,7.60
2024-05-09T19:03:31.790Z,7.90
2024-05-09T19:05:59.133Z,8.90
2024-05-09T19:08:31.226Z,8.70
2024-05-09T19:10:58.372Z,8.27
2024-05-09T19:13:28.146Z,8.20
2024-05-09T19:15:56.648Z,8.18
2024-05-09T19:18:26.231Z,7.38
2024-05-09T19:20:53.306Z,8.48
2024-05-09T19:23:22.863Z,9.50
2024-05-09T19:25:52.977Z,10.20
2024-05-09T19:28:22.465Z,8.70
2024-05-09T19:30:49.357Z,8.23
2024-05-09T19:33:18.759Z,9.05
2024-05-09T19:35:45.591Z,7.15
2024-05-09T19:38:15.451Z,8.05
2024-05-09T19:40:42.478Z,8.20
2024-05-09T19:43:14.565Z,6.53
2024-05-09T19:45:41.501Z,7.28
2024-05-09T19:48:11.410Z,8.70
2024-05-09T19:50:43.103Z,7.65
2024-05-09T19:53:14.916Z,7.22
2024-05-09T19:55:42.420Z,7.43
2024-05-09T19:58:14.680Z,6.38
2024-05-09T20:00:43.438Z,7.47
2024-05-09T20:03:15.675Z,6.18
2024-05-09T20:05:44.885Z,7.82
2024-05-09T20:08:15.041Z,7.72
2024-05-09T20:10:42.037Z,6.22
2024-05-09T20:13:14.210Z,7.03
2024-05-09T20:15:41.193Z,6.35
2024-05-09T20:18:10.890Z,6.05
2024-05-09T20:20:41.657Z,7.07
2024-05-09T20:23:13.550Z,5.78
2024-05-09T20:25:40.550Z,7.03
2024-05-09T20:28:10.540Z,5.47
2024-05-09T20:30:40.331Z,8.63
2024-05-09T20:33:10.406Z,6.57
2024-05-09T20:35:37.544Z,6.38
2024-05-09T20:38:07.287Z,7.40
2024-05-09T20:40:37.615Z,7.30
2024-05-09T20:43:09.489Z,5.97
2024-05-09T20:45:40.264Z,6.57
2024-05-09T20:48:12.727Z,6.30
2024-05-09T20:50:41.961Z,6.72
2024-05-09T20:53:14.823Z,7.03
2024-05-09T20:55:42.503Z,6.55
2024-05-09T20:58:12.983Z,5.93
2024-05-09T21:00:45.480Z,5.75
2024-05-09T21:03:17.573Z,7.70
2024-05-09T21:05:45.437Z,5.85
2024-05-09T21:08:15.102Z,6.47
2024-05-09T21:10:42.015Z,7.03
2024-05-09T21:13:11.761Z,7.47
2024-05-09T21:15:38.781Z,5.78
2024-05-09T21:18:11.076Z,7.03
2024-05-09T21:20:37.999Z,7.85
2024-05-09T21:23:07.897Z,8.75
2024-05-09T21:25:34.945Z,9.93
2024-05-09T21:28:04.535Z,12.63
2024-05-09T21:30:40.144Z,17.30
2024-05-09T21:33:15.366Z,16.08
2024-05-09T21:35:43.105Z,15.63
2024-05-09T21:38:13.511Z,15.43
2024-05-09T21:40:43.445Z,12.88
2024-05-09T21:43:10.513Z,14.07
2024-05-09T21:45:40.069Z,14.00
2024-05-09T21:48:08.259Z,11.77
2024-05-09T21:50:42.199Z,12.02
2024-05-09T21:53:10.119Z,12.82
2024-05-09T21:55:39.602Z,12.32
2024-05-09T21:58:06.647Z,11.98
2024-05-09T22:00:39.313Z,11.73
2024-05-09T22:03:08.335Z,10.73
2024-05-09T22:05:42.081Z,9.68
2024-05-09T22:08:09.577Z,9.93
2024-05-09T22:10:39.099Z,8.20
2024-05-09T22:13:06.640Z,7.40
2024-05-09T22:15:39.083Z,7.63
2024-05-09T22:18:08.321Z,9.38
2024-05-09T22:20:45.092Z,9.15
2024-05-09T22:23:13.562Z,9.63
2024-05-09T22:25:43.241Z,10.40
2024-05-09T22:28:10.712Z,9.98
2024-05-09T22:30:40.550Z,11.73
2024-05-09T22:33:08.789Z,9.60
2024-05-09T22:35:42.570Z,9.52
2024-05-09T22:38:09.515Z,8.75
2024-05-09T22:40:47.359Z,10.88
2024-05-09T22:43:18.261Z,9.18
2024-05-09T22:45:48.048Z,9.05
2024-05-09T22:48:15.172Z,9.23
2024-05-09T22:50:47.489Z,8.82
2024-05-09T22:53:14.724Z,11.38
2024-05-09T22:55:44.399Z,10.73
2024-05-09T22:58:11.234Z,9.95
2024-05-09T23:00:48.268Z,10.77
2024-05-09T23:03:20.840Z,11.02
2024-05-09T23:05:50.851Z,10.73
2024-05-09T23:08:20.326Z,10.95
2024-05-09T23:10:47.263Z,10.13
2024-05-09T23:13:16.825Z,12.10
2024-05-09T23:15:43.760Z,10.57
2024-05-09T23:18:13.360Z,9.55
2024-05-09T23:20:40.565Z,10.10
2024-05-09T23:23:12.907Z,10.90
2024-05-09T23:25:41.423Z,10.65
2024-05-09T23:28:11.222Z,10.43
2024-05-09T23:30:40.495Z,11.95
2024-05-09T23:33:13.460Z,12.27
2024-05-09T23:35:42.095Z,10.57
2024-05-09T23:38:14.334Z,10.85
2024-05-09T23:40:42.403Z,10.25
2024-05-09T23:43:13.967Z,10.77
2024-05-09T23:45:41.550Z,10.45
2024-05-09T23:48:12.134Z,10.27
2024-05-09T23:50:40.395Z,10.10
2024-05-09T23:53:11.155Z,10.90
2024-05-09T23:55:41.067Z,10.45
2024-05-09T23:58:11.406Z,9.77
